createdAt,value
2023-04-30T00:01:39.230Z,94.20
2023-04-30T00:03:44.639Z,94.10
2023-04-30T00:05:53.609Z,94.20
2023-04-30T00:07:58.640Z,93.60
2023-04-30T00:10:05.782Z,93.60
2023-04-30T00:12:13.406Z,93.80
2023-04-30T00:14:18.696Z,94.10
2023-04-30T00:16:23.790Z,93.70
2023-04-30T00:18:28.832Z,93.70
2023-04-30T00:20:35.448Z,93.90
2023-04-30T00:22:40.459Z,93.70
2023-04-30T00:24:45.545Z,93.80
2023-04-30T00:26:50.834Z,93.50
2023-04-30T00:28:58.458Z,93.60
2023-04-30T00:31:06.868Z,93.70
2023-04-30T00:33:11.934Z,93.20
2023-04-30T00:35:17.505Z,93.80
2023-04-30T00:37:22.614Z,93.60
2023-04-30T00:39:27.733Z,94.00
2023-04-30T00:41:33.161Z,94.10
2023-04-30T00:43:38.311Z,93.90
2023-04-30T00:45:46.036Z,93.70
2023-04-30T00:47:51.560Z,94.20
2023-04-30T00:49:57.167Z,94.10
2023-04-30T00:52:02.316Z,94.30
2023-04-30T00:54:07.787Z,94.70
2023-04-30T00:56:13.315Z,94.70
2023-04-30T00:58:18.785Z,94.60
2023-04-30T01:00:24.449Z,94.90
2023-04-30T01:02:33.138Z,94.90
2023-04-30T01:04:38.572Z,94.50
2023-04-30T01:06:43.911Z,94.50
2023-04-30T01:08:49.619Z,94.70
2023-04-30T01:11:04.860Z,94.70
2023-04-30T01:13:15.493Z,94.80
2023-04-30T01:15:30.636Z,94.70
2023-04-30T01:17:45.021Z,94.70
2023-04-30T01:19:50.310Z,94.60
2023-04-30T01:21:57.633Z,94.80
2023-04-30T01:24:26.821Z,95.00
2023-04-30T01:26:56.080Z,95.00
2023-04-30T01:29:07.108Z,95.10
2023-04-30T01:31:17.200Z,95.10
2023-04-30T01:33:22.525Z,95.30
2023-04-30T01:35:45.324Z,95.40
2023-04-30T01:38:02.593Z,95.50
2023-04-30T01:40:26.780Z,95.30
2023-04-30T01:42:44.980Z,95.50
2023-04-30T01:45:12.383Z,95.40
2023-04-30T01:47:33.784Z,95.60
2023-04-30T01:49:51.046Z,95.50
2023-04-30T01:52:04.881Z,95.50
2023-04-30T01:54:20.902Z,95.60
2023-04-30T01:56:44.143Z,95.60
2023-04-30T01:58:51.089Z,95.60
2023-04-30T02:00:58.954Z,95.50
2023-04-30T02:03:05.094Z,95.80
2023-04-30T02:05:11.364Z,95.80
2023-04-30T02:07:40.457Z,95.90
2023-04-30T02:09:46.157Z,95.80
2023-04-30T02:11:51.312Z,95.70
2023-04-30T02:13:56.810Z,95.60
2023-04-30T02:16:04.590Z,95.70
2023-04-30T02:18:10.262Z,95.40
2023-04-30T02:20:15.518Z,95.40
2023-04-30T02:22:21.214Z,95.40
2023-04-30T02:24:26.822Z,95.30
2023-04-30T02:26:32.094Z,95.30
2023-04-30T02:28:37.652Z,95.20
2023-04-30T02:30:42.928Z,95.40
2023-04-30T02:32:50.833Z,95.50
2023-04-30T02:34:55.915Z,95.30
2023-04-30T02:37:02.922Z,95.30
2023-04-30T02:39:09.435Z,95.30
2023-04-30T02:41:14.514Z,95.50
2023-04-30T02:43:20.316Z,95.70
2023-04-30T02:45:25.412Z,95.40
2023-04-30T02:47:31.068Z,95.60
2023-04-30T02:49:40.140Z,95.70
2023-04-30T02:51:45.183Z,95.80
2023-04-30T02:53:53.403Z,95.90
2023-04-30T02:55:59.303Z,96.00
2023-04-30T02:58:04.358Z,95.90
2023-04-30T03:00:12.541Z,95.90
2023-04-30T03:02:21.683Z,95.60
2023-04-30T03:04:27.057Z,95.30
2023-04-30T03:06:34.825Z,95.00
2023-04-30T03:08:39.998Z,94.90
2023-04-30T03:10:45.017Z,94.90
2023-04-30T03:12:50.270Z,95.20
2023-04-30T03:14:56.468Z,95.40
2023-04-30T03:17:01.501Z,95.60
2023-04-30T03:19:07.011Z,95.60
2023-04-30T03:21:12.461Z,95.50
2023-04-30T03:23:20.245Z,95.70
2023-04-30T03:25:25.668Z,95.60
2023-04-30T03:27:30.703Z,95.50
2023-04-30T03:29:35.890Z,95.40
2023-04-30T03:31:41.109Z,95.20
2023-04-30T03:33:46.476Z,95.30
2023-04-30T03:35:52.057Z,95.30
2023-04-30T03:37:57.162Z,95.20
2023-04-30T03:40:06.923Z,95.20
2023-04-30T03:42:11.949Z,95.30
2023-04-30T03:44:18.002Z,95.50
2023-04-30T03:46:23.212Z,95.50
2023-04-30T03:48:28.312Z,95.30
2023-04-30T03:50:33.544Z,95.40
2023-04-30T03:52:39.019Z,95.50
2023-04-30T03:54:44.998Z,95.60
2023-04-30T03:56:52.800Z,95.60
2023-04-30T03:58:58.325Z,95.70
2023-04-30T04:01:03.520Z,95.60
2023-04-30T04:03:08.669Z,95.50
2023-04-30T04:05:13.844Z,95.50
2023-04-30T04:07:19.494Z,95.50
2023-04-30T04:09:24.612Z,95.60
2023-04-30T04:11:29.647Z,95.80
2023-04-30T04:13:38.328Z,95.80
2023-04-30T04:15:43.453Z,95.80
2023-04-30T04:17:49.237Z,96.00
2023-04-30T04:19:54.985Z,96.20
2023-04-30T04:22:00.381Z,96.20
2023-04-30T04:24:08.748Z,96.30
2023-04-30T04:26:15.313Z,96.40
2023-04-30T04:28:20.391Z,96.20
2023-04-30T04:30:28.784Z,96.20
2023-04-30T04:32:47.034Z,96.10
2023-04-30T04:34:54.662Z,96.10
2023-04-30T04:36:59.711Z,96.00
2023-04-30T04:39:05.039Z,96.00
2023-04-30T04:41:10.421Z,95.90
2023-04-30T04:43:15.868Z,95.80
2023-04-30T04:45:22.198Z,95.90
2023-04-30T04:47:31.529Z,95.90
2023-04-30T04:49:36.991Z,95.90
2023-04-30T04:51:42.676Z,95.80
2023-04-30T04:53:47.777Z,95.80
2023-04-30T04:55:53.358Z,95.90
2023-04-30T04:57:58.401Z,95.90
2023-04-30T05:00:04.238Z,95.90
2023-04-30T05:02:09.336Z,95.90
2023-04-30T05:04:17.411Z,95.90
2023-04-30T05:06:24.064Z,96.00
2023-04-30T05:08:29.130Z,95.80
2023-04-30T05:10:35.034Z,95.50
2023-04-30T05:12:40.249Z,95.90
2023-04-30T05:14:45.333Z,96.00
2023-04-30T05:16:50.813Z,96.40
2023-04-30T05:18:56.317Z,96.20
2023-04-30T05:21:05.090Z,96.30
2023-04-30T05:23:10.090Z,96.40
2023-04-30T05:25:15.489Z,96.30
2023-04-30T05:27:21.256Z,96.30
2023-04-30T05:29:26.537Z,95.90
2023-04-30T05:31:32.706Z,95.90
2023-04-30T05:33:37.751Z,96.40
2023-04-30T05:35:42.846Z,96.30
2023-04-30T05:37:50.529Z,96.10
2023-04-30T05:39:56.412Z,96.20
2023-04-30T05:42:02.953Z,95.80
2023-04-30T05:44:08.610Z,96.10
2023-04-30T05:46:14.168Z,96.20
2023-04-30T05:48:19.303Z,95.90
2023-04-30T05:50:24.385Z,95.80
2023-04-30T05:52:29.639Z,96.00
2023-04-30T05:54:37.372Z,95.90
2023-04-30T05:56:43.148Z,95.90
2023-04-30T05:58:48.198Z,96.20
2023-04-30T06:00:53.851Z,95.90
2023-04-30T06:02:59.045Z,96.10
2023-04-30T06:05:04.282Z,96.00
2023-04-30T06:07:09.676Z,95.50
2023-04-30T06:09:14.906Z,95.70
2023-04-30T06:11:23.099Z,94.50
2023-04-30T06:13:28.176Z,95.20
2023-04-30T06:15:33.314Z,95.30
2023-04-30T06:17:38.360Z,95.70
2023-04-30T06:19:43.433Z,95.00
2023-04-30T06:21:48.913Z,95.10
2023-04-30T06:23:53.938Z,95.10
2023-04-30T06:25:59.037Z,94.60
2023-04-30T06:28:08.494Z,95.20
2023-04-30T06:30:14.553Z,95.30
2023-04-30T06:32:20.077Z,94.50
2023-04-30T06:34:25.146Z,94.90
2023-04-30T06:36:30.169Z,94.50
2023-04-30T06:38:35.199Z,94.50
2023-04-30T06:40:40.281Z,94.50
2023-04-30T06:42:47.635Z,94.10
2023-04-30T06:44:55.913Z,94.40
2023-04-30T06:47:01.147Z,94.00
2023-04-30T06:49:06.166Z,94.40
2023-04-30T06:51:11.922Z,93.90
2023-04-30T06:53:17.698Z,93.70
2023-04-30T06:55:23.459Z,93.20
2023-04-30T06:57:28.807Z,93.70
2023-04-30T06:59:34.012Z,93.30
2023-04-30T07:01:41.673Z,92.90
2023-04-30T07:03:47.046Z,93.30
2023-04-30T07:05:54.174Z,92.80
2023-04-30T07:07:59.573Z,92.60
2023-04-30T07:10:04.613Z,92.50
2023-04-30T07:12:11.509Z,92.70
2023-04-30T07:14:16.530Z,91.60
2023-04-30T07:16:21.925Z,91.90
2023-04-30T07:18:29.577Z,90.80
2023-04-30T07:20:34.674Z,91.30
2023-04-30T07:22:40.142Z,90.50
2023-04-30T07:24:45.274Z,89.50
2023-04-30T07:26:50.429Z,89.40
2023-04-30T07:28:55.715Z,89.20
2023-04-30T07:31:00.833Z,86.80
2023-04-30T07:33:05.937Z,87.40
2023-04-30T07:35:14.759Z,86.50
2023-04-30T07:37:19.808Z,87.00
2023-04-30T07:39:24.830Z,86.50
2023-04-30T07:41:29.991Z,85.20
2023-04-30T07:43:35.026Z,86.10
2023-04-30T07:45:40.296Z,84.30
2023-04-30T07:47:45.624Z,87.40
2023-04-30T07:49:52.509Z,84.40
2023-04-30T07:52:01.068Z,85.30
2023-04-30T07:54:07.208Z,83.80
2023-04-30T07:56:12.237Z,83.50
2023-04-30T07:58:18.150Z,82.30
2023-04-30T08:00:23.389Z,82.00
2023-04-30T08:02:28.561Z,82.70
2023-04-30T08:04:34.424Z,80.20
2023-04-30T08:06:39.714Z,82.10
2023-04-30T08:08:48.673Z,82.60
2023-04-30T08:10:53.786Z,79.70
2023-04-30T08:12:58.816Z,78.90
2023-04-30T08:15:05.414Z,76.40
2023-04-30T08:17:10.620Z,77.80
2023-04-30T08:19:15.906Z,78.90
2023-04-30T08:21:21.022Z,74.30
2023-04-30T08:23:26.456Z,74.40
2023-04-30T08:25:34.380Z,74.90
2023-04-30T08:27:39.740Z,74.10
2023-04-30T08:29:45.284Z,75.80
2023-04-30T08:31:50.396Z,75.40
2023-04-30T08:33:55.686Z,74.30
2023-04-30T08:36:00.770Z,72.80
2023-04-30T08:38:06.164Z,71.70
2023-04-30T08:40:14.155Z,71.90
2023-04-30T08:42:24.391Z,70.10
2023-04-30T08:44:31.002Z,67.20
2023-04-30T08:46:37.921Z,70.10
2023-04-30T08:48:44.884Z,68.70
2023-04-30T08:50:49.940Z,66.20
2023-04-30T08:52:55.022Z,69.40
2023-04-30T08:55:01.631Z,68.70
2023-04-30T08:57:08.042Z,68.20
2023-04-30T08:59:16.490Z,67.20
2023-04-30T09:01:22.784Z,68.90
2023-04-30T09:03:28.641Z,69.50
2023-04-30T09:05:34.020Z,65.80
2023-04-30T09:07:46.120Z,62.30
2023-04-30T09:09:58.694Z,66.00
2023-04-30T09:12:19.315Z,65.20
2023-04-30T09:14:30.185Z,63.50
2023-04-30T09:16:50.585Z,62.10
2023-04-30T09:18:56.856Z,66.10
2023-04-30T09:21:03.666Z,58.80
2023-04-30T09:23:11.152Z,63.90
2023-04-30T09:25:16.490Z,59.80
2023-04-30T09:27:25.135Z,58.50
2023-04-30T09:29:40.919Z,58.10
2023-04-30T09:31:50.240Z,63.20
2023-04-30T09:33:56.371Z,57.80
2023-04-30T09:36:11.325Z,58.50
2023-04-30T09:38:31.206Z,58.90
2023-04-30T09:40:40.759Z,57.30
2023-04-30T09:43:01.888Z,54.40
2023-04-30T09:45:15.267Z,57.60
2023-04-30T09:47:21.946Z,54.60
2023-04-30T09:49:27.838Z,57.80
2023-04-30T09:51:33.564Z,55.90
2023-04-30T09:53:41.354Z,57.50
2023-04-30T09:55:47.931Z,56.40
2023-04-30T09:57:53.346Z,56.90
2023-04-30T09:59:59.398Z,56.80
2023-04-30T10:02:08.896Z,56.40
2023-04-30T10:04:14.204Z,54.70
2023-04-30T10:06:20.856Z,53.00
2023-04-30T10:08:31.269Z,52.10
2023-04-30T10:10:36.580Z,57.80
2023-04-30T10:12:46.963Z,58.80
2023-04-30T10:14:58.356Z,58.30
2023-04-30T10:17:16.887Z,53.90
2023-04-30T10:19:27.289Z,52.90
2023-04-30T10:21:34.346Z,51.00
2023-04-30T10:23:40.105Z,54.60
2023-04-30T10:25:46.122Z,54.80
2023-04-30T10:27:51.189Z,54.90
2023-04-30T10:29:58.033Z,54.10
2023-04-30T10:32:07.464Z,52.40
2023-04-30T10:34:24.686Z,51.10
2023-04-30T10:36:41.161Z,49.30
2023-04-30T10:38:48.532Z,51.10
2023-04-30T10:40:53.857Z,53.40
2023-04-30T10:42:58.923Z,50.10
2023-04-30T10:45:06.373Z,52.90
2023-04-30T10:47:14.702Z,50.20
2023-04-30T10:49:28.688Z,51.80
2023-04-30T10:51:51.834Z,52.20
2023-04-30T10:53:58.447Z,49.10
2023-04-30T10:56:09.469Z,53.10
2023-04-30T10:58:34.271Z,53.10
2023-04-30T11:00:39.827Z,50.60
2023-04-30T11:02:50.161Z,55.50
2023-04-30T11:05:19.035Z,53.70
2023-04-30T11:07:29.234Z,53.30
2023-04-30T11:09:44.349Z,53.80
2023-04-30T11:11:51.075Z,50.10
2023-04-30T11:14:03.631Z,53.60
2023-04-30T11:16:09.205Z,51.50
2023-04-30T11:18:17.238Z,53.40
2023-04-30T11:20:25.638Z,53.90
2023-04-30T11:22:36.444Z,55.00
2023-04-30T11:25:06.622Z,56.90
2023-04-30T11:27:16.129Z,50.50
2023-04-30T11:29:22.416Z,50.70
2023-04-30T11:31:37.105Z,54.50
2023-04-30T11:33:44.752Z,50.70
2023-04-30T11:35:52.229Z,51.10
2023-04-30T11:37:59.838Z,53.80
2023-04-30T11:40:07.959Z,51.60
2023-04-30T11:42:13.290Z,52.90
2023-04-30T11:44:29.320Z,52.80
2023-04-30T11:46:34.461Z,53.20
2023-04-30T11:48:42.392Z,51.50
2023-04-30T11:50:50.554Z,56.20
2023-04-30T11:52:57.523Z,52.90
2023-04-30T11:55:03.109Z,54.30
2023-04-30T11:57:08.863Z,51.90
2023-04-30T11:59:14.361Z,50.90
2023-04-30T12:01:21.275Z,52.10
2023-04-30T12:03:27.428Z,48.50
2023-04-30T12:05:32.585Z,54.80
2023-04-30T12:07:40.483Z,53.80
2023-04-30T12:09:58.533Z,49.10
2023-04-30T12:12:03.773Z,54.20
2023-04-30T12:14:11.576Z,49.10
2023-04-30T12:16:17.111Z,49.00
2023-04-30T12:18:22.138Z,50.10
2023-04-30T12:20:29.821Z,48.60
2023-04-30T12:22:35.801Z,52.80
2023-04-30T12:24:43.422Z,49.60
2023-04-30T12:26:49.306Z,50.70
2023-04-30T12:28:55.226Z,49.80
2023-04-30T12:31:00.290Z,48.80
2023-04-30T12:33:06.913Z,46.80
2023-04-30T12:35:16.769Z,48.80
2023-04-30T12:37:21.799Z,45.10
2023-04-30T12:39:27.575Z,46.80
2023-04-30T12:41:42.638Z,47.40
2023-04-30T12:43:47.616Z,49.00
2023-04-30T12:45:54.696Z,47.90
2023-04-30T12:47:59.940Z,47.80
2023-04-30T12:50:06.109Z,46.80
2023-04-30T12:52:15.557Z,43.80
2023-04-30T12:54:29.164Z,47.00
2023-04-30T12:56:36.848Z,46.60
2023-04-30T12:58:42.653Z,47.90
2023-04-30T13:00:52.895Z,45.40
2023-04-30T13:02:58.044Z,42.90
2023-04-30T13:05:04.322Z,43.10
2023-04-30T13:07:09.888Z,43.50
2023-04-30T13:09:15.675Z,42.70
2023-04-30T13:11:20.705Z,43.60
2023-04-30T13:13:29.486Z,44.90
2023-04-30T13:15:35.229Z,43.20
2023-04-30T13:17:40.865Z,45.20
2023-04-30T13:19:46.429Z,39.50
2023-04-30T13:21:51.457Z,43.80
2023-04-30T13:23:58.485Z,41.00
2023-04-30T13:26:05.158Z,35.40
2023-04-30T13:28:10.273Z,34.20
2023-04-30T13:30:19.059Z,34.60
2023-04-30T13:32:24.265Z,37.60
2023-04-30T13:34:29.996Z,35.90
2023-04-30T13:36:35.410Z,35.90
2023-04-30T13:38:41.747Z,36.30
2023-04-30T13:40:47.016Z,36.90
2023-04-30T13:42:52.259Z,39.20
2023-04-30T13:44:57.525Z,35.00
2023-04-30T13:47:05.208Z,34.40
2023-04-30T13:49:10.982Z,37.90
2023-04-30T13:51:16.097Z,35.70
2023-04-30T13:53:21.556Z,35.70
2023-04-30T13:55:27.212Z,35.00
2023-04-30T13:57:33.988Z,35.40
2023-04-30T13:59:39.717Z,34.70
2023-04-30T14:01:44.776Z,34.20
2023-04-30T14:03:52.731Z,37.20
2023-04-30T14:05:58.738Z,34.30
2023-04-30T14:08:03.753Z,34.50
2023-04-30T14:10:11.474Z,35.90
2023-04-30T14:12:16.517Z,35.40
2023-04-30T14:14:21.761Z,36.20
2023-04-30T14:16:27.706Z,35.20
2023-04-30T14:18:32.718Z,35.60
2023-04-30T14:20:40.971Z,35.90
2023-04-30T14:22:46.109Z,32.90
2023-04-30T14:24:51.562Z,34.90
2023-04-30T14:26:56.633Z,33.10
2023-04-30T14:29:01.637Z,33.90
2023-04-30T14:31:07.236Z,33.60
2023-04-30T14:33:13.171Z,32.10
2023-04-30T14:35:18.270Z,33.90
2023-04-30T14:37:25.917Z,33.90
2023-04-30T14:39:31.042Z,32.50
2023-04-30T14:41:39.049Z,32.40
2023-04-30T14:43:44.103Z,37.60
2023-04-30T14:45:49.644Z,37.20
2023-04-30T14:47:54.763Z,34.80
2023-04-30T14:50:02.349Z,38.90
2023-04-30T14:52:07.988Z,39.40
2023-04-30T14:54:15.652Z,42.20
2023-04-30T14:56:21.222Z,41.10
2023-04-30T14:58:26.262Z,35.70
2023-04-30T15:00:31.271Z,37.60
2023-04-30T15:02:36.416Z,36.70
2023-04-30T15:04:45.557Z,34.60
2023-04-30T15:06:50.982Z,32.80
2023-04-30T15:08:56.528Z,35.20
2023-04-30T15:11:07.331Z,34.70
2023-04-30T15:13:14.350Z,36.40
2023-04-30T15:15:21.401Z,36.70
2023-04-30T15:17:27.087Z,37.70
2023-04-30T15:19:33.313Z,39.70
2023-04-30T15:21:39.260Z,38.60
2023-04-30T15:23:44.363Z,36.40
2023-04-30T15:25:49.618Z,37.10
2023-04-30T15:27:58.469Z,41.30
2023-04-30T15:30:03.904Z,38.20
2023-04-30T15:32:09.453Z,36.50
2023-04-30T15:34:14.511Z,37.90
2023-04-30T15:36:20.523Z,40.10
2023-04-30T15:38:25.554Z,42.60
2023-04-30T15:40:31.163Z,42.50
2023-04-30T15:42:37.554Z,42.40
2023-04-30T15:44:45.176Z,42.40
2023-04-30T15:46:52.064Z,43.20
2023-04-30T15:48:57.225Z,44.20
2023-04-30T15:51:02.480Z,43.00
2023-04-30T15:53:07.847Z,42.60
2023-04-30T15:55:13.432Z,42.70
2023-04-30T15:57:18.561Z,41.90
2023-04-30T15:59:23.829Z,39.20
2023-04-30T16:01:31.595Z,37.60
2023-04-30T16:03:37.941Z,38.10
2023-04-30T16:05:43.960Z,37.00
2023-04-30T16:07:49.117Z,34.20
2023-04-30T16:09:54.331Z,37.20
2023-04-30T16:12:00.321Z,36.10
2023-04-30T16:14:05.557Z,36.00
2023-04-30T16:16:11.386Z,39.70
2023-04-30T16:18:19.008Z,39.00
2023-04-30T16:20:24.042Z,39.70
2023-04-30T16:22:30.369Z,39.60
2023-04-30T16:24:35.414Z,39.20
2023-04-30T16:26:40.876Z,39.40
2023-04-30T16:28:45.921Z,39.50
2023-04-30T16:30:50.939Z,37.40
2023-04-30T16:32:56.031Z,36.30
2023-04-30T16:35:03.713Z,37.70
2023-04-30T16:37:08.919Z,35.80
2023-04-30T16:39:16.848Z,33.90
2023-04-30T16:41:22.202Z,34.70
2023-04-30T16:43:27.240Z,34.70
2023-04-30T16:45:32.633Z,32.30
2023-04-30T16:47:38.031Z,34.10
2023-04-30T16:49:43.082Z,33.30
2023-04-30T16:51:51.071Z,35.60
2023-04-30T16:53:56.959Z,36.10
2023-04-30T16:56:01.980Z,35.50
2023-04-30T16:58:07.651Z,35.10
2023-04-30T17:00:14.911Z,33.90
2023-04-30T17:02:20.048Z,35.40
2023-04-30T17:04:25.572Z,35.60
2023-04-30T17:06:30.627Z,36.00
2023-04-30T17:08:40.518Z,39.60
2023-04-30T17:10:45.863Z,38.00
2023-04-30T17:12:51.283Z,36.50
2023-04-30T17:14:56.317Z,36.30
2023-04-30T17:17:01.861Z,36.70
2023-04-30T17:19:08.092Z,37.20
2023-04-30T17:21:13.265Z,38.00
2023-04-30T17:23:18.617Z,38.60
2023-04-30T17:25:26.385Z,38.80
2023-04-30T17:27:31.534Z,40.20
2023-04-30T17:29:36.826Z,39.40
2023-04-30T17:31:41.912Z,41.60
2023-04-30T17:33:47.050Z,43.40
2023-04-30T17:35:52.804Z,44.50
2023-04-30T17:37:58.077Z,44.10
2023-04-30T17:40:03.403Z,45.20
2023-04-30T17:42:11.043Z,47.00
2023-04-30T17:44:16.318Z,46.40
2023-04-30T17:46:22.569Z,45.80
2023-04-30T17:48:28.116Z,47.40
2023-04-30T17:50:33.862Z,48.80
2023-04-30T17:52:39.061Z,49.80
2023-04-30T17:54:44.337Z,50.60
2023-04-30T17:56:49.413Z,50.60
2023-04-30T17:58:57.521Z,51.70
2023-04-30T18:01:03.848Z,51.90
2023-04-30T18:03:08.952Z,51.90
2023-04-30T18:05:14.938Z,52.60
2023-04-30T18:07:20.016Z,53.70
2023-04-30T18:09:26.059Z,54.40
2023-04-30T18:11:31.445Z,54.70
2023-04-30T18:13:37.226Z,54.60
2023-04-30T18:15:44.825Z,55.20
2023-04-30T18:17:50.160Z,55.90
2023-04-30T18:19:56.004Z,56.60
2023-04-30T18:22:01.341Z,56.30
2023-04-30T18:24:07.314Z,57.30
2023-04-30T18:26:12.375Z,57.20
2023-04-30T18:28:17.935Z,57.80
2023-04-30T18:30:23.102Z,58.80
2023-04-30T18:32:31.259Z,58.30
2023-04-30T18:34:36.528Z,58.80
2023-04-30T18:36:43.110Z,58.90
2023-04-30T18:38:48.364Z,59.50
2023-04-30T18:40:56.749Z,60.70
2023-04-30T18:43:01.771Z,60.30
2023-04-30T18:45:09.170Z,60.50
2023-04-30T18:47:14.291Z,60.50
2023-04-30T18:49:21.886Z,61.20
2023-04-30T18:51:27.025Z,61.00
2023-04-30T18:53:32.307Z,61.00
2023-04-30T18:55:37.341Z,60.70
2023-04-30T18:57:43.418Z,61.20
2023-04-30T18:59:49.605Z,62.10
2023-04-30T19:01:54.906Z,62.30
2023-04-30T19:03:59.957Z,62.60
2023-04-30T19:06:07.721Z,62.50
2023-04-30T19:08:12.823Z,62.60
2023-04-30T19:10:18.082Z,62.90
2023-04-30T19:12:23.133Z,63.20
2023-04-30T19:14:28.238Z,63.50
2023-04-30T19:16:33.642Z,63.70
2023-04-30T19:18:39.694Z,63.90
2023-04-30T19:20:46.322Z,64.10
2023-04-30T19:22:53.919Z,63.70
2023-04-30T19:24:59.410Z,64.10
2023-04-30T19:27:04.710Z,64.90
2023-04-30T19:29:09.721Z,65.30
2023-04-30T19:31:15.306Z,65.40
2023-04-30T19:33:21.351Z,66.20
2023-04-30T19:35:26.666Z,65.20
2023-04-30T19:37:31.770Z,66.50
2023-04-30T19:39:40.424Z,66.50
2023-04-30T19:41:45.470Z,66.30
2023-04-30T19:43:52.477Z,66.30
2023-04-30T19:45:59.463Z,67.00
2023-04-30T19:48:04.527Z,67.00
2023-04-30T19:50:12.123Z,67.80
2023-04-30T19:52:17.301Z,67.30
2023-04-30T19:54:22.311Z,67.90
2023-04-30T19:56:31.227Z,68.90
2023-04-30T19:58:36.245Z,70.90
2023-04-30T20:00:45.560Z,72.20
2023-04-30T20:02:52.020Z,74.20
2023-04-30T20:04:57.799Z,74.10
2023-04-30T20:07:03.111Z,74.60
2023-04-30T20:09:08.140Z,75.40
2023-04-30T20:11:13.435Z,76.00
2023-04-30T20:13:22.724Z,75.90
2023-04-30T20:15:28.121Z,75.90
2023-04-30T20:17:34.064Z,76.10
2023-04-30T20:19:39.149Z,75.70
2023-04-30T20:21:44.408Z,76.90
2023-04-30T20:23:49.464Z,77.00
2023-04-30T20:25:55.438Z,77.00
2023-04-30T20:28:01.016Z,76.40
2023-04-30T20:30:10.647Z,77.30
2023-04-30T20:32:15.691Z,77.40
2023-04-30T20:34:20.702Z,78.10
2023-04-30T20:36:26.341Z,77.40
2023-04-30T20:38:31.736Z,77.70
2023-04-30T20:40:40.189Z,77.10
2023-04-30T20:42:45.222Z,78.20
2023-04-30T20:44:50.591Z,78.70
2023-04-30T20:46:58.555Z,79.50
2023-04-30T20:49:05.266Z,79.30
2023-04-30T20:51:10.745Z,79.90
2023-04-30T20:53:15.812Z,80.30
2023-04-30T20:55:21.246Z,78.30
2023-04-30T20:57:26.504Z,81.10
2023-04-30T20:59:31.815Z,81.20
2023-04-30T21:01:37.081Z,82.10
2023-04-30T21:03:44.760Z,82.80
2023-04-30T21:05:49.828Z,83.90
2023-04-30T21:07:55.188Z,84.70
2023-04-30T21:10:01.147Z,85.10
2023-04-30T21:12:07.867Z,85.40
2023-04-30T21:14:12.926Z,85.70
2023-04-30T21:16:18.005Z,85.50
2023-04-30T21:18:23.352Z,84.10
2023-04-30T21:20:31.718Z,84.80
2023-04-30T21:22:37.116Z,84.70
2023-04-30T21:24:42.183Z,84.70
2023-04-30T21:26:47.550Z,84.40
2023-04-30T21:28:53.435Z,85.30
2023-04-30T21:30:58.839Z,85.40
2023-04-30T21:33:04.902Z,85.60
2023-04-30T21:35:10.508Z,86.00
2023-04-30T21:37:18.583Z,85.60
2023-04-30T21:39:23.826Z,86.10
2023-04-30T21:41:30.329Z,85.70
2023-04-30T21:43:35.447Z,86.10
2023-04-30T21:45:42.036Z,86.50
2023-04-30T21:47:50.648Z,85.80
2023-04-30T21:49:56.221Z,86.20
2023-04-30T21:52:01.838Z,86.10
2023-04-30T21:54:09.558Z,86.70
2023-04-30T21:56:16.418Z,86.70
2023-04-30T21:58:21.646Z,87.40
2023-04-30T22:00:28.159Z,87.10
2023-04-30T22:02:33.233Z,86.80
2023-04-30T22:04:38.478Z,86.80
2023-04-30T22:06:43.583Z,86.60
2023-04-30T22:08:48.929Z,87.50
2023-04-30T22:10:59.828Z,87.30
2023-04-30T22:13:05.460Z,87.20
2023-04-30T22:15:12.326Z,87.40
2023-04-30T22:17:17.580Z,87.10
2023-04-30T22:19:23.080Z,86.80
2023-04-30T22:21:28.085Z,87.40
2023-04-30T22:23:34.053Z,88.00
2023-04-30T22:25:39.140Z,87.60
2023-04-30T22:27:47.881Z,87.60
2023-04-30T22:29:53.405Z,88.10
2023-04-30T22:31:59.416Z,87.80
2023-04-30T22:34:07.200Z,87.80
2023-04-30T22:36:12.209Z,88.00
2023-04-30T22:38:17.787Z,88.30
2023-04-30T22:40:22.815Z,87.50
2023-04-30T22:42:28.484Z,88.20
2023-04-30T22:44:37.950Z,87.90
2023-04-30T22:46:43.378Z,88.40
2023-04-30T22:48:48.670Z,88.50
2023-04-30T22:50:54.560Z,88.90
2023-04-30T22:52:59.921Z,89.00
2023-04-30T22:55:05.645Z,88.80
2023-04-30T22:57:10.691Z,88.90
2023-04-30T22:59:17.105Z,88.90
2023-04-30T23:01:24.810Z,88.80
2023-04-30T23:03:30.414Z,88.50
2023-04-30T23:05:35.599Z,88.40
2023-04-30T23:07:40.891Z,89.00
2023-04-30T23:09:45.980Z,88.80
2023-04-30T23:11:51.133Z,88.60
2023-04-30T23:13:56.784Z,89.20
2023-04-30T23:16:05.581Z,88.20
2023-04-30T23:18:13.337Z,89.30
2023-04-30T23:20:18.932Z,88.60
2023-04-30T23:22:23.915Z,89.10
2023-04-30T23:24:28.953Z,89.30
2023-04-30T23:26:34.263Z,90.50
2023-04-30T23:28:39.941Z,89.70
2023-04-30T23:30:45.088Z,89.90
2023-04-30T23:32:50.141Z,91.00
2023-04-30T23:34:57.883Z,90.40
2023-04-30T23:37:03.169Z,90.40
2023-04-30T23:39:08.560Z,90.00
2023-04-30T23:41:13.557Z,89.90
2023-04-30T23:43:18.578Z,89.80
2023-04-30T23:45:24.263Z,89.60
2023-04-30T23:47:30.730Z,90.30
2023-04-30T23:49:36.358Z,90.70
2023-04-30T23:51:43.964Z,90.10
2023-04-30T23:53:48.985Z,90.00
2023-04-30T23:55:53.970Z,89.70
2023-04-30T23:57:59.037Z,89.80
